Time;durP1;ratioP1;P1;durP2;ratioP2;P2;SDS_P1;SDS_P2;PMS_P1;PMS_P2;Temp;Humidity;BMP_temperature;BMP_pressure;BME280_temperature;BME280_humidity;BME280_pressure;Samples;Min_cycle;Max_cycle;Signal;HPM_P1;HPM_P2
2023/08/09 00:02:23;;;;;;;8.23;4.10;;;;;;;-146.27;100.00;82621.22;5028398;28;20025;-67
2023/08/09 00:04:49;;;;;;;8.02;4.28;;;;;;;-146.27;100.00;82657.41;4989887;28;1119875;-68
2023/08/09 00:07:14;;;;;;;7.25;4.22;;;;;;;-146.27;100.00;82659.41;5031183;28;20167;-67
2023/08/09 00:09:40;;;;;;;5.40;3.92;;;;;;;-146.27;100.00;82649.34;5025379;28;20116;-68
2023/08/09 00:12:06;;;;;;;6.72;4.35;;;;;;;-146.27;100.00;82657.41;5025807;28;20030;-67
2023/08/09 00:14:31;;;;;;;8.43;4.13;;;;;;;-146.27;100.00;82645.34;5031530;28;20025;-68
2023/08/09 00:16:57;;;;;;;5.35;3.83;;;;;;;-146.27;100.00;82633.28;5031164;28;20025;-68
2023/08/09 00:19:24;;;;;;;6.63;4.85;;;;;;;-146.27;100.00;82693.56;5031226;28;20075;-67
2023/08/09 00:21:49;;;;;;;8.27;4.50;;;;;;;-146.27;100.00;82673.47;5022949;28;20033;-67
2023/08/09 00:24:16;;;;;;;8.15;4.43;;;;;;;-146.27;100.00;82663.41;5026530;28;20048;-67
2023/08/09 00:26:41;;;;;;;7.32;5.00;;;;;;;-146.27;100.00;82661.41;5022097;28;20032;-67
2023/08/09 00:29:07;;;;;;;6.43;4.57;;;;;;;-146.27;100.00;82689.53;5029914;28;20408;-67
2023/08/09 00:31:33;;;;;;;7.25;5.05;;;;;;;-146.27;100.00;82655.38;5025839;28;20033;-67
2023/08/09 00:33:59;;;;;;;7.70;4.47;;;;;;;-146.27;100.00;82705.59;5030658;28;20029;-67
2023/08/09 00:36:24;;;;;;;6.05;4.32;;;;;;;-146.27;100.00;82661.41;5027929;28;20080;-67
2023/08/09 00:38:50;;;;;;;6.15;4.72;;;;;;;-146.27;100.00;82671.47;5026287;28;20076;-67
2023/08/09 00:41:15;;;;;;;6.50;4.40;;;;;;;-146.27;100.00;82653.38;5027205;28;20025;-67
2023/08/09 00:43:41;;;;;;;6.53;4.60;;;;;;;-146.27;100.00;82693.56;5029217;28;20017;-67
2023/08/09 00:46:07;;;;;;;6.85;4.78;;;;;;;-146.27;100.00;82701.59;5026663;28;20039;-68
2023/08/09 00:48:33;;;;;;;6.93;4.90;;;;;;;-146.27;100.00;82663.41;5028706;28;20088;-67
2023/08/09 00:50:59;;;;;;;9.55;4.68;;;;;;;-146.27;100.00;82689.53;5029938;28;20029;-68
2023/08/09 00:53:27;;;;;;;7.40;4.70;;;;;;;-146.27;100.00;82665.44;5028494;28;20478;-68
2023/08/09 00:55:52;;;;;;;6.53;4.97;;;;;;;-146.27;100.00;82691.53;5030251;28;20547;-67
2023/08/09 00:58:18;;;;;;;9.07;5.05;;;;;;;-146.27;100.00;82697.56;5029394;28;20052;-68
2023/08/09 01:00:43;;;;;;;7.80;4.28;;;;;;;-146.27;100.00;82691.53;5030512;28;20388;-67
2023/08/09 01:03:09;;;;;;;7.10;4.55;;;;;;;-146.27;100.00;82693.56;5028946;28;20029;-68
2023/08/09 01:05:45;;;;;;;6.97;4.03;;;;;;;-146.27;100.00;82709.63;5029799;28;20049;-68
2023/08/09 01:08:29;;;;;;;11.60;5.00;;;;;;;-146.27;100.00;82693.56;5018858;28;20543;-67
2023/08/09 01:11:09;;;;;;;;;;;;;;;-146.27;100.00;82749.81;5027707;28;20420;-67
2023/08/09 01:13:37;;;;;;;8.50;4.60;;;;;;;-146.27;100.00;82665.44;5027252;28;19916;-68
2023/08/09 01:16:05;;;;;;;7.47;4.55;;;;;;;-146.27;100.00;82737.75;5030866;28;20400;-68
2023/08/09 01:18:32;;;;;;;7.35;4.25;;;;;;;-146.27;100.00;82749.81;5029070;28;20408;-67
2023/08/09 01:21:00;;;;;;;7.68;4.97;;;;;;;-146.27;100.00;82715.66;5030589;28;20025;-67
2023/08/09 01:23:38;;;;;;;6.45;4.55;;;;;;;-146.27;100.00;82721.69;5029704;28;20468;-68
2023/08/09 01:26:05;;;;;;;8.00;4.93;;;;;;;-146.27;100.00;82731.72;5016234;28;20588;-67
2023/08/09 01:28:31;;;;;;;8.20;4.50;;;;;;;-146.27;100.00;82789.97;5027973;28;20056;-68
2023/08/09 01:30:57;;;;;;;12.20;5.07;;;;;;;-146.27;100.00;82731.72;5029367;28;20367;-66
2023/08/09 01:33:23;;;;;;;9.15;4.50;;;;;;;-146.27;100.00;82687.53;5029596;28;20020;-66
2023/08/09 01:36:04;;;;;;;6.13;4.72;;;;;;;-146.27;100.00;82693.56;5027847;28;20026;-66
2023/08/09 01:38:35;;;;;;;6.65;3.88;;;;;;;-146.27;100.00;82669.44;5026965;28;20082;-67
2023/08/09 01:41:01;;;;;;;5.90;4.30;;;;;;;-146.27;100.00;82739.75;5028371;28;20124;-67
2023/08/09 01:43:29;;;;;;;8.38;5.10;;;;;;;-146.27;100.00;82699.59;5026634;28;20033;-67
2023/08/09 01:45:55;;;;;;;7.28;3.95;;;;;;;-146.27;100.00;82755.84;5029296;28;20509;-66
2023/08/09 01:48:21;;;;;;;8.50;4.57;;;;;;;-146.27;100.00;82781.94;5025947;28;20025;-66
2023/08/09 01:50:46;;;;;;;9.55;4.25;;;;;;;-146.27;100.00;82751.81;5031156;28;20100;-67
2023/08/09 01:53:12;;;;;;;6.32;4.25;;;;;;;-146.27;100.00;82781.94;5029130;28;20033;-67
2023/08/09 01:55:38;;;;;;;9.57;4.72;;;;;;;-146.27;100.00;82781.94;5028780;28;20087;-67
2023/08/09 01:58:04;;;;;;;12.75;4.93;;;;;;;-146.27;100.00;82785.97;5028065;28;20036;-67
2023/08/09 02:00:29;;;;;;;5.85;4.30;;;;;;;-146.27;100.00;82773.91;5027673;28;20096;-67
2023/08/09 02:02:54;;;;;;;13.15;4.35;;;;;;;-146.27;100.00;82789.97;5029763;28;20079;-67
2023/08/09 02:05:20;;;;;;;7.55;4.22;;;;;;;-146.27;100.00;82798.03;5027856;28;20045;-67
2023/08/09 02:07:47;;;;;;;5.55;4.20;;;;;;;-146.27;100.00;82808.06;5025612;28;20540;-68
2023/08/09 02:10:13;;;;;;;9.63;4.60;;;;;;;-146.27;100.00;82798.03;5028726;28;20029;-68
2023/08/09 02:12:39;;;;;;;7.07;4.78;;;;;;;-146.27;100.00;82781.94;5026622;28;20036;-67
2023/08/09 02:15:06;;;;;;;8.23;4.68;;;;;;;-146.27;100.00;82775.91;5028292;28;20392;-67
2023/08/09 02:17:32;;;;;;;9.18;6.53;;;;;;;-146.27;100.00;82765.88;5020218;28;20477;-68
2023/08/09 02:19:58;;;;;;;7.65;4.80;;;;;;;-146.27;100.00;82781.94;5022968;28;20048;-68
2023/08/09 02:22:25;;;;;;;8.00;4.53;;;;;;;-146.27;100.00;82719.66;5015724;28;20890;-68
2023/08/09 02:24:50;;;;;;;13.13;4.88;;;;;;;-146.27;100.00;82737.75;5026139;28;20040;-67
2023/08/09 02:27:16;;;;;;;9.27;4.80;;;;;;;-146.27;100.00;82743.78;5026689;28;20041;-67
2023/08/09 02:29:41;;;;;;;10.27;5.55;;;;;;;-146.27;100.00;82751.81;5029661;28;20029;-67
2023/08/09 02:32:06;;;;;;;10.13;5.07;;;;;;;-146.27;100.00;82749.81;5028703;28;20029;-67
2023/08/09 02:34:32;;;;;;;6.95;5.00;;;;;;;-146.27;100.00;82773.91;5025423;28;20103;-67
2023/08/09 02:36:57;;;;;;;10.98;5.35;;;;;;;-146.27;100.00;82783.97;5026229;28;20091;-67
2023/08/09 02:39:24;;;;;;;8.40;4.57;;;;;;;-146.27;100.00;82781.94;5024458;28;20091;-67
2023/08/09 02:41:49;;;;;;;7.82;5.20;;;;;;;-146.27;100.00;82749.81;5025031;28;20035;-67
2023/08/09 02:44:15;;;;;;;9.98;4.88;;;;;;;-146.27;100.00;82806.06;5023040;28;20029;-68
2023/08/09 02:46:41;;;;;;;7.57;4.55;;;;;;;-146.27;100.00;82757.84;5027598;28;20029;-67
2023/08/09 02:49:06;;;;;;;8.90;5.13;;;;;;;-146.27;100.00;82800.03;5028058;28;20029;-67
2023/08/09 02:51:32;;;;;;;10.93;5.25;;;;;;;-146.27;100.00;82820.13;5026352;28;20036;-67
2023/08/09 02:54:01;;;;;;;6.22;5.35;;;;;;;-146.27;100.00;82842.22;5023421;28;20732;-67
2023/08/09 02:56:27;;;;;;;10.93;5.30;;;;;;;-146.27;100.00;82814.09;5021885;28;20029;-68
2023/08/09 02:58:53;;;;;;;9.23;5.70;;;;;;;-146.27;100.00;82775.91;5028105;28;20083;-66
2023/08/09 03:01:19;;;;;;;11.05;6.22;;;;;;;-146.27;100.00;82814.09;5026084;28;20026;-68
2023/08/09 03:03:44;;;;;;;10.10;5.90;;;;;;;-146.27;100.00;82828.16;5016834;28;20432;-68
2023/08/09 03:06:10;;;;;;;9.02;5.90;;;;;;;-146.27;100.00;82796.00;5025433;28;20041;-67
2023/08/09 03:08:36;;;;;;;12.07;5.60;;;;;;;-146.27;100.00;82794.00;5026075;28;20029;-68
2023/08/09 03:11:01;;;;;;;14.07;6.60;;;;;;;-146.27;100.00;82777.94;5022251;28;20121;-68
2023/08/09 03:13:27;;;;;;;14.55;6.32;;;;;;;-146.27;100.00;82773.91;5023526;28;20040;-68
2023/08/09 03:15:52;;;;;;;17.90;6.47;;;;;;;-146.27;100.00;82818.13;5026943;28;20029;-67
2023/08/09 03:18:18;;;;;;;9.75;6.43;;;;;;;-146.27;100.00;82777.94;5027994;28;20056;-67
2023/08/09 03:20:43;;;;;;;8.70;6.20;;;;;;;-146.27;100.00;82816.09;5026199;28;20392;-67
2023/08/09 03:23:09;;;;;;;12.95;7.00;;;;;;;-146.27;100.00;82767.88;5019319;28;20057;-66
2023/08/09 03:25:36;;;;;;;11.85;6.25;;;;;;;-146.27;100.00;82794.00;5027192;28;20393;-67
2023/08/09 03:28:02;;;;;;;13.05;7.45;;;;;;;-146.27;100.00;82765.88;5021759;28;20112;-67
2023/08/09 03:30:28;;;;;;;14.82;8.48;;;;;;;-146.27;100.00;82858.28;5028108;28;20048;-67
2023/08/09 03:32:53;;;;;;;10.00;7.18;;;;;;;-146.27;100.00;82777.94;5025160;28;20029;-67
2023/08/09 03:35:19;;;;;;;14.98;7.75;;;;;;;-146.27;100.00;82798.03;5021137;28;20389;-69
2023/08/09 03:37:45;;;;;;;12.43;7.30;;;;;;;-146.27;100.00;82773.91;5019003;28;20049;-67
2023/08/09 03:40:12;;;;;;;15.02;7.68;;;;;;;-146.27;100.00;82783.97;5021313;28;20483;-67
2023/08/09 03:42:41;;;;;;;21.35;8.75;;;;;;;-146.27;100.00;82802.03;5021099;28;20481;-68
2023/08/09 03:45:07;;;;;;;15.70;8.20;;;;;;;-146.27;100.00;82785.97;5021489;28;20029;-68
2023/08/09 03:47:32;;;;;;;15.27;8.65;;;;;;;-146.27;100.00;82759.84;5021254;28;20032;-68
2023/08/09 03:49:58;;;;;;;15.25;8.20;;;;;;;-146.27;100.00;82769.91;5022932;28;20025;-68
2023/08/09 03:52:24;;;;;;;13.02;7.93;;;;;;;-146.27;100.00;82773.91;5014572;28;20033;-68
2023/08/09 03:54:52;;;;;;;13.77;8.70;;;;;;;-146.27;100.00;82779.94;5019108;28;21900;-68
2023/08/09 03:57:18;;;;;;;20.00;8.98;;;;;;;-146.27;100.00;82755.84;5018524;28;20033;-68
2023/08/09 03:59:43;;;;;;;15.18;9.43;;;;;;;-146.27;100.00;82767.88;5022249;28;20026;-68
2023/08/09 04:02:09;;;;;;;17.55;9.88;;;;;;;-146.27;100.00;82822.13;5020209;28;20032;-68
2023/08/09 04:04:34;;;;;;;15.75;9.27;;;;;;;-146.27;100.00;82743.78;5020698;28;20049;-67
2023/08/09 04:07:00;;;;;;;18.00;10.23;;;;;;;-146.27;100.00;82739.75;5029644;28;20030;-68
2023/08/09 04:09:26;;;;;;;20.00;11.30;;;;;;;-146.27;100.00;82745.78;5031863;28;20031;-67
2023/08/09 04:11:52;;;;;;;15.93;10.25;;;;;;;-146.27;100.00;82753.81;5031541;28;20044;-67
2023/08/09 04:14:19;;;;;;;17.77;11.50;;;;;;;-146.27;100.00;82765.88;5031081;28;20240;-67
2023/08/09 04:16:44;;;;;;;21.00;10.32;;;;;;;-146.27;100.00;82725.69;5031719;28;20656;-68
2023/08/09 04:19:10;;;;;;;17.83;10.60;;;;;;;-146.27;100.00;82729.72;5031227;28;20072;-68
2023/08/09 04:21:35;;;;;;;17.90;10.98;;;;;;;-146.27;100.00;82739.75;5028848;28;20465;-68
2023/08/09 04:24:00;;;;;;;21.88;10.45;;;;;;;-146.27;100.00;82751.81;5032368;28;20053;-68
2023/08/09 04:26:27;;;;;;;22.48;12.13;;;;;;;-146.27;100.00;82826.16;5027872;28;20025;-67
2023/08/09 04:28:52;;;;;;;20.70;12.48;;;;;;;-146.27;100.00;82745.78;5023890;28;20481;-68
2023/08/09 04:31:17;;;;;;;21.08;12.55;;;;;;;-146.27;100.00;82753.81;5021819;28;20041;-68
2023/08/09 04:33:49;;;;;;;20.45;12.63;;;;;;;-146.27;100.00;82737.75;5029311;28;20393;-68
2023/08/09 04:36:15;;;;;;;22.85;12.52;;;;;;;-146.27;100.00;82747.78;5031299;28;20029;-67
2023/08/09 04:38:41;;;;;;;21.67;13.20;;;;;;;-146.27;100.00;82729.72;5027498;28;20061;-68
2023/08/09 04:41:06;;;;;;;22.25;12.15;;;;;;;-146.27;100.00;82713.66;5026320;28;20057;-67
2023/08/09 04:43:32;;;;;;;23.58;13.93;;;;;;;-146.27;100.00;82717.66;5030831;28;20032;-68
2023/08/09 04:45:57;;;;;;;21.75;14.20;;;;;;;-146.27;100.00;82705.59;5031299;28;20076;-68
2023/08/09 04:48:23;;;;;;;26.50;13.90;;;;;;;-146.27;100.00;82717.66;5025936;28;20533;-67
2023/08/09 04:50:48;;;;;;;23.35;13.75;;;;;;;-146.27;100.00;82731.72;5031842;28;20032;-67
2023/08/09 04:53:14;;;;;;;25.83;14.38;;;;;;;-146.27;100.00;82741.78;5024530;28;20057;-68
2023/08/09 04:55:40;;;;;;;24.80;14.45;;;;;;;-146.27;100.00;82713.66;5028607;28;20029;-68
2023/08/09 04:58:05;;;;;;;22.27;13.98;;;;;;;-146.27;100.00;82691.53;5031017;28;20029;-68
2023/08/09 05:00:30;;;;;;;23.23;14.90;;;;;;;-146.27;100.00;82641.31;5030724;28;20055;-68
2023/08/09 05:02:56;;;;;;;20.48;13.82;;;;;;;-146.27;100.00;82661.41;5028734;28;20504;-68
2023/08/09 05:05:21;;;;;;;26.58;15.68;;;;;;;-146.27;100.00;82663.41;5025456;28;20061;-68
2023/08/09 05:07:47;;;;;;;21.92;14.18;;;;;;;-146.27;100.00;82605.16;5021474;28;20021;-68
2023/08/09 05:10:12;;;;;;;21.70;14.27;;;;;;;-146.27;100.00;82573.00;5025914;28;20064;-68
2023/08/09 05:12:37;;;;;;;23.58;13.70;;;;;;;-146.27;100.00;82599.13;5018620;28;20034;-68
2023/08/09 05:15:03;;;;;;;23.67;14.45;;;;;;;-146.27;100.00;82562.97;5019200;28;20032;-68
2023/08/09 05:17:29;;;;;;;23.05;13.15;;;;;;;-146.27;100.00;82593.09;5025326;28;20022;-68
2023/08/09 05:19:55;;;;;;;22.17;13.25;;;;;;;-146.27;100.00;82571.00;5027251;28;20076;-68
2023/08/09 05:22:21;;;;;;;26.10;13.38;;;;;;;-146.27;100.00;82571.00;5022955;28;20155;-68
2023/08/09 05:24:46;;;;;;;18.60;12.63;;;;;;;-146.27;100.00;82621.22;5024299;28;20041;-68
2023/08/09 05:27:11;;;;;;;20.40;12.07;;;;;;;-146.27;100.00;82601.16;5024659;28;20028;-68
2023/08/09 05:29:37;;;;;;;18.00;11.73;;;;;;;-146.27;100.00;82593.09;5026167;28;20163;-68
2023/08/09 05:32:03;;;;;;;19.75;11.82;;;;;;;-146.27;100.00;82601.16;5027353;28;20489;-68
2023/08/09 05:34:29;;;;;;;19.10;10.85;;;;;;;-146.27;100.00;82617.22;5013671;28;20045;-68
2023/08/09 05:36:54;;;;;;;18.02;10.95;;;;;;;-146.27;100.00;82591.09;5027408;28;20025;-68
2023/08/09 05:39:19;;;;;;;15.55;10.63;;;;;;;-146.27;100.00;82599.13;5029557;28;20044;-68
2023/08/09 05:41:48;;;;;;;16.17;10.63;;;;;;;-146.27;100.00;82558.97;5020609;28;20037;-67
2023/08/09 05:44:13;;;;;;;18.15;11.50;;;;;;;-146.27;100.00;82597.13;5027074;28;20033;-68
2023/08/09 05:46:38;;;;;;;17.23;10.10;;;;;;;-146.27;100.00;82597.13;5026866;28;20412;-70
2023/08/09 05:49:04;;;;;;;23.70;11.00;;;;;;;-146.27;100.00;82621.22;5031020;28;20045;-70
2023/08/09 05:51:31;;;;;;;18.02;10.38;;;;;;;-146.27;100.00;82577.03;5028082;28;20021;-70
2023/08/09 05:53:57;;;;;;;19.52;10.73;;;;;;;-146.27;100.00;82581.06;5020307;28;20029;-71
2023/08/09 05:56:22;;;;;;;14.07;9.50;;;;;;;-146.27;100.00;82552.94;5021327;28;20086;-71
2023/08/09 05:58:48;;;;;;;12.55;9.10;;;;;;;-146.27;100.00;82571.00;5020928;28;20029;-71
2023/08/09 06:01:14;;;;;;;16.83;11.25;;;;;;;-146.27;100.00;82573.00;5026200;28;20022;-70
2023/08/09 06:03:39;;;;;;;12.65;8.57;;;;;;;-146.27;100.00;82554.94;5024681;28;20021;-71
2023/08/09 06:06:10;;;;;;;15.07;10.18;;;;;;;-146.27;100.00;82530.84;5025738;28;20041;-71
2023/08/09 06:08:36;;;;;;;14.30;9.80;;;;;;;-146.27;100.00;82534.84;5028063;28;20413;-71
2023/08/09 06:11:02;;;;;;;21.60;10.80;;;;;;;-146.27;100.00;82512.75;5027504;28;20021;-70
2023/08/09 06:13:27;;;;;;;16.27;10.13;;;;;;;-146.27;100.00;82536.84;5029226;28;20037;-69
2023/08/09 06:15:53;;;;;;;18.75;10.82;;;;;;;-146.27;100.00;82492.66;5020681;28;20032;-70
2023/08/09 06:18:18;;;;;;;19.20;9.75;;;;;;;-146.27;100.00;82468.56;5018538;28;20033;-69
2023/08/09 06:20:44;;;;;;;23.90;10.82;;;;;;;-146.27;100.00;82522.78;5021681;28;20152;-69
2023/08/09 06:23:10;;;;;;;17.92;10.45;;;;;;;-146.27;100.00;82476.59;5021091;28;20021;-69
2023/08/09 06:25:35;;;;;;;15.57;9.40;;;;;;;-146.27;100.00;82448.47;5017872;28;20022;-70
2023/08/09 06:28:01;;;;;;;14.98;9.23;;;;;;;-146.27;100.00;82462.53;5015037;28;20057;-71
2023/08/09 06:30:26;;;;;;;18.70;9.60;;;;;;;-146.27;100.00;82434.41;5020131;28;20087;-69
2023/08/09 06:32:53;;;;;;;14.70;9.18;;;;;;;-146.27;100.00;82416.31;5019558;28;20397;-70
2023/08/09 06:35:19;;;;;;;13.02;8.93;;;;;;;-146.27;100.00;82380.16;5029322;28;20033;-70
2023/08/09 06:37:48;;;;;;;11.98;7.80;;;;;;;-146.27;100.00;82400.25;5025465;28;20030;-70
2023/08/09 06:40:15;;;;;;;13.90;7.82;;;;;;;-146.27;100.00;82364.09;5025079;28;20017;-71
2023/08/09 06:42:41;;;;;;;10.10;7.25;;;;;;;-146.27;100.00;82340.00;5027882;28;20076;-71
2023/08/09 06:45:07;;;;;;;16.80;8.23;;;;;;;-146.27;100.00;82319.91;5028061;28;20103;-71
2023/08/09 06:47:33;;;;;;;13.25;7.45;;;;;;;-146.27;100.00;82307.84;5025500;28;20033;-71
2023/08/09 06:50:04;;;;;;;9.23;6.45;;;;;;;-146.27;100.00;82241.56;5030506;28;20075;-71
2023/08/09 06:52:38;;;;;;;13.50;7.20;;;;;;;-146.27;100.00;82251.59;5022038;28;20017;-70
2023/08/09 06:55:05;;;;;;;15.13;6.60;;;;;;;-146.27;100.00;82255.63;5028058;28;20026;-71
2023/08/09 06:57:31;;;;;;;8.63;5.80;;;;;;;-146.27;100.00;82267.69;5028639;28;20025;-71
2023/08/09 06:59:57;;;;;;;9.48;6.10;;;;;;;-146.27;100.00;82249.59;5029123;28;20107;-71
2023/08/09 07:02:24;;;;;;;9.00;5.35;;;;;;;-146.27;100.00;82215.44;5022253;28;20096;-71
2023/08/09 07:04:52;;;;;;;9.32;5.53;;;;;;;-146.27;100.00;82201.38;5018222;28;20103;-71
2023/08/09 07:07:18;;;;;;;8.10;5.15;;;;;;;-146.27;100.00;82209.44;5026929;28;20071;-70
2023/08/09 07:09:43;;;;;;;8.52;5.60;;;;;;;-146.27;100.00;82235.53;5028821;28;20040;-72
2023/08/09 07:12:09;;;;;;;11.48;5.30;;;;;;;-146.27;100.00;82179.28;5024201;28;20026;-73
2023/08/09 07:14:35;;;;;;;17.45;6.03;;;;;;;-146.27;100.00;82193.34;5024646;28;20026;-74
2023/08/09 07:17:00;;;;;;;9.75;4.75;;;;;;;-146.27;100.00;82135.09;5035584;28;20033;-75
2023/08/09 07:19:26;;;;;;;9.65;6.00;;;;;;;-146.27;100.00;82169.25;5026563;28;20080;-75
2023/08/09 07:21:52;;;;;;;11.93;6.13;;;;;;;-146.27;100.00;82135.09;5029153;28;20033;-75
2023/08/09 07:24:17;;;;;;;6.97;5.00;;;;;;;-146.27;100.00;82117.03;5031359;28;20104;-73
2023/08/09 07:26:43;;;;;;;8.77;5.07;;;;;;;-146.27;100.00;82113.00;5028085;28;20108;-73
2023/08/09 07:29:08;;;;;;;6.82;4.80;;;;;;;-146.27;100.00;82090.91;5028563;28;20037;-75
2023/08/09 07:31:35;;;;;;;6.28;4.38;;;;;;;-146.27;100.00;82014.59;5030441;28;20029;-74
2023/08/09 07:34:01;;;;;;;8.57;5.43;;;;;;;-146.27;100.00;81984.47;5030576;28;20104;-75
2023/08/09 07:36:27;;;;;;;6.95;4.95;;;;;;;-146.27;100.00;82022.63;5028155;28;20063;-75
2023/08/09 07:38:58;;;;;;;8.23;4.57;;;;;;;-146.27;100.00;82032.66;5027847;28;20033;-73
2023/08/09 07:41:24;;;;;;;6.97;3.47;;;;;;;-146.27;100.00;81978.44;5027678;28;20112;-73
2023/08/09 07:43:49;;;;;;;5.82;2.97;;;;;;;-146.27;100.00;81958.34;5030394;28;20113;-75
2023/08/09 07:46:15;;;;;;;4.43;2.50;;;;;;;-146.27;99.77;81942.28;5021994;28;20022;-74
2023/08/09 07:48:41;;;;;;;4.43;2.83;;;;;;;-146.27;97.80;81946.28;5027137;28;20678;-73
2023/08/09 07:51:11;;;;;;;8.45;2.92;;;;;;;-146.27;96.87;81956.34;5026881;28;20025;-74
2023/08/09 07:53:37;;;;;;;6.38;2.42;;;;;;;-146.27;96.96;81924.19;5023073;28;20040;-73
2023/08/09 07:56:03;;;;;;;3.70;2.83;;;;;;;-146.27;97.38;81966.38;5031704;28;20348;-74
2023/08/09 07:58:28;;;;;;;5.13;3.17;;;;;;;-146.27;97.47;81934.25;5028386;28;20033;-75
2023/08/09 08:00:54;;;;;;;9.52;2.95;;;;;;;-146.27;97.54;81918.16;5023593;28;20405;-74
2023/08/09 08:03:19;;;;;;;6.63;3.30;;;;;;;-146.27;97.38;82010.56;5017944;28;20025;-75
2023/08/09 08:05:45;;;;;;;5.53;2.97;;;;;;;-146.27;97.64;82020.59;5020711;28;20116;-74
2023/08/09 08:08:10;;;;;;;6.80;2.80;;;;;;;-146.27;97.59;82050.75;5022914;28;20041;-74
2023/08/09 08:10:41;;;;;;;8.63;3.50;;;;;;;-146.27;99.25;82018.59;5029923;28;20025;-74
2023/08/09 08:13:06;;;;;;;7.57;3.30;;;;;;;-146.27;98.83;82048.72;5015609;28;20025;-75
2023/08/09 08:15:32;;;;;;;6.72;2.83;;;;;;;-146.27;98.98;81942.28;5031183;28;20040;-74
2023/08/09 08:18:03;;;;;;;6.80;3.03;;;;;;;-146.27;98.84;81906.13;5027931;28;20432;-74
2023/08/09 08:20:28;;;;;;;6.13;3.25;;;;;;;-146.27;97.85;81865.94;5022657;28;20120;-72
2023/08/09 08:22:54;;;;;;;3.53;2.75;;;;;;;-146.27;95.47;81890.06;5031864;28;20042;-76
2023/08/09 08:25:19;;;;;;;4.07;2.72;;;;;;;-146.27;93.24;81878.00;5033284;28;20029;-76
2023/08/09 08:27:45;;;;;;;4.25;2.38;;;;;;;-146.27;91.90;81900.09;5032148;28;20033;-76
2023/08/09 08:30:17;;;;;;;9.93;2.78;;;;;;;-146.27;91.25;81912.16;5032156;28;20286;-74
2023/08/09 08:32:48;;;;;;;4.20;2.58;;;;;;;-146.27;91.55;81956.34;5031171;28;20029;-77
2023/08/09 08:35:18;;;;;;;4.25;2.50;;;;;;;-146.27;92.05;81922.19;5029788;28;20064;-75
2023/08/09 08:37:44;;;;;;;6.28;2.83;;;;;;;-146.27;93.01;81857.91;5030022;28;20533;-75
2023/08/09 08:40:21;;;;;;;3.72;2.30;;;;;;;-146.27;92.04;81819.75;5025476;28;20036;-75
2023/08/09 08:42:48;;;;;;;7.07;2.25;;;;;;;-146.27;91.45;81745.44;5028968;28;20025;-75
2023/08/09 08:45:15;;;;;;;3.15;1.70;;;;;;;-146.27;86.92;81777.56;5023899;28;20026;-74
2023/08/09 08:47:43;;;;;;;7.07;2.33;;;;;;;-146.27;86.96;81749.47;5032793;28;20025;-74
2023/08/09 08:50:10;;;;;;;3.53;1.88;;;;;;;-146.27;85.81;81721.34;5031317;28;20038;-75
2023/08/09 08:52:42;;;;;;;4.22;1.83;;;;;;;-146.27;85.11;81693.22;5029765;28;20083;-74
2023/08/09 08:55:10;;;;;;;4.63;1.90;;;;;;;-146.27;85.86;81616.91;5030566;28;20128;-73
2023/08/09 08:57:37;;;;;;;7.00;2.15;;;;;;;-146.27;84.89;81622.91;5031895;28;20029;-74
2023/08/09 09:00:16;;;;;;;6.10;1.88;;;;;;;-146.27;84.71;81592.78;5030208;28;20025;-74
2023/08/09 09:02:45;;;;;;;5.43;1.80;;;;;;;-146.27;83.34;81616.91;5032473;28;20029;-74
2023/08/09 09:05:13;;;;;;;5.32;1.70;;;;;;;-146.27;80.98;81614.88;5030198;28;20108;-75
2023/08/09 09:07:40;;;;;;;7.32;2.20;;;;;;;-146.27;79.97;81649.03;5020820;28;20029;-75
2023/08/09 09:10:09;;;;;;;6.43;2.03;;;;;;;-146.27;80.01;81624.94;5029018;28;20037;-76
2023/08/09 09:12:38;;;;;;;3.42;1.90;;;;;;;-146.27;80.62;81604.84;5031637;28;20018;-74
2023/08/09 09:15:05;;;;;;;6.10;2.35;;;;;;;-146.27;79.09;81596.81;5027399;28;20026;-75
2023/08/09 09:17:37;;;;;;;4.97;1.85;;;;;;;-146.27;78.65;81554.63;5025392;28;20480;-74
2023/08/09 09:20:03;;;;;;;4.93;1.88;;;;;;;-146.27;77.64;81554.63;5024073;28;20033;-74
2023/08/09 09:22:31;;;;;;;4.35;2.10;;;;;;;-146.27;77.54;81600.84;5031802;28;20029;-74
2023/08/09 09:25:04;;;;;;;6.20;2.15;;;;;;;-146.27;78.25;81590.78;5031436;28;20025;-74
2023/08/09 09:27:32;;;;;;;11.48;1.80;;;;;;;-146.27;79.71;81520.50;5027027;28;20044;-75
2023/08/09 09:30:03;;;;;;;3.78;1.60;;;;;;;-146.27;78.69;81512.47;5029242;28;20434;-76
2023/08/09 09:32:30;;;;;;;5.82;1.35;;;;;;;-146.27;78.24;81452.22;5029631;28;20057;-74
2023/08/09 09:34:56;;;;;;;5.85;1.85;;;;;;;-146.27;77.71;81568.69;5030057;28;20491;-74
2023/08/09 09:37:25;;;;;;;9.98;1.40;;;;;;;-146.27;78.27;81520.50;5029622;28;20156;-74
2023/08/09 09:39:52;;;;;;;3.00;1.20;;;;;;;-146.27;78.76;81548.59;5026506;28;20056;-75
2023/08/09 09:42:18;;;;;;;4.28;1.42;;;;;;;-146.27;78.61;81482.34;5044165;28;20527;-75
2023/08/09 09:44:44;;;;;;;3.13;1.55;;;;;;;-146.27;78.96;81496.41;5031705;28;20500;-70
2023/08/09 09:47:10;;;;;;;4.70;1.17;;;;;;;-146.27;78.41;81492.38;5029585;28;20437;-72
2023/08/09 09:49:36;;;;;;;2.80;1.40;;;;;;;-146.27;76.18;81468.28;5029141;28;20111;-69
2023/08/09 09:52:05;;;;;;;4.65;1.27;;;;;;;-146.27;73.85;81512.47;5022550;28;20077;-71
2023/08/09 09:54:33;;;;;;;4.38;1.17;;;;;;;-146.27;75.24;81480.31;5024286;28;20064;-71
2023/08/09 09:56:59;;;;;;;4.18;1.15;;;;;;;-146.27;74.79;81442.16;5026492;28;20033;-72
2023/08/09 09:59:24;;;;;;;5.57;1.40;;;;;;;-146.27;75.45;81420.06;5023737;28;20063;-71
2023/08/09 10:01:51;;;;;;;4.03;1.20;;;;;;;-146.27;74.85;81448.19;5024625;28;20084;-72
2023/08/09 10:04:19;;;;;;;8.57;1.60;;;;;;;-146.27;75.21;81353.81;5029242;28;20622;-73
2023/08/09 10:06:47;;;;;;;3.65;1.63;;;;;;;-146.27;73.32;81327.69;5023243;28;20021;-73
2023/08/09 10:09:13;;;;;;;4.85;1.33;;;;;;;-146.27;72.45;81341.75;5023435;28;20030;-71
2023/08/09 10:11:40;;;;;;;4.38;1.67;;;;;;;-146.27;72.74;81404.00;5022550;28;20472;-72
2023/08/09 10:14:09;;;;;;;5.47;1.50;;;;;;;-146.27;73.48;81476.31;5023232;28;20033;-72
2023/08/09 10:16:36;;;;;;;5.05;1.50;;;;;;;-146.27;75.43;81371.88;5022162;28;20385;-72
2023/08/09 10:19:07;;;;;;;8.88;1.70;;;;;;;-146.27;74.03;81347.78;5018730;28;20025;-71
2023/08/09 10:21:32;;;;;;;7.88;1.42;;;;;;;-146.27;72.05;81335.72;5024401;28;20591;-72
2023/08/09 10:24:09;;;;;;;8.88;1.98;;;;;;;-146.27;72.90;81285.53;5024869;28;20309;-72
2023/08/09 10:26:39;;;;;;;2.67;1.00;;;;;;;-146.27;68.63;81279.50;5024546;28;20460;-72
2023/08/09 10:29:12;;;;;;;3.22;1.17;;;;;;;-146.27;70.21;81173.06;5022809;28;20056;-72
2023/08/09 10:31:51;;;;;;;5.95;0.93;;;;;;;-146.27;69.79;81150.97;5026072;28;20030;-69
2023/08/09 10:34:20;;;;;;;4.18;0.90;;;;;;;-146.27;67.94;81231.31;5026492;28;20033;-68
2023/08/09 10:36:51;;;;;;;4.47;1.20;;;;;;;-146.27;67.86;81161.00;5022086;28;20470;-72
2023/08/09 10:39:21;;;;;;;4.43;1.20;;;;;;;-146.27;69.23;81183.09;5027642;28;20037;-71
2023/08/09 10:42:09;;;;;;;6.70;1.30;;;;;;;-146.27;68.64;81078.69;5027420;28;20022;-71
2023/08/09 10:44:42;;;;;;;4.20;1.20;;;;;;;-146.27;69.43;81062.59;5028331;28;20403;-72
2023/08/09 10:47:13;;;;;;;4.88;1.50;;;;;;;-146.27;68.74;81006.38;5026920;28;20044;-71
2023/08/09 10:49:47;;;;;;;2.67;1.10;;;;;;;-146.27;69.46;80926.06;5030254;28;20140;-72
2023/08/09 10:52:20;;;;;;;5.07;1.98;;;;;;;-146.27;67.00;80944.13;5026202;28;20029;-71
2023/08/09 10:54:49;;;;;;;5.78;1.30;;;;;;;-146.27;66.62;80936.09;5012381;28;20461;-72
2023/08/09 10:57:16;;;;;;;3.67;1.15;;;;;;;-146.27;67.01;80877.88;5011606;28;20493;-72
2023/08/09 10:59:43;;;;;;;4.65;1.10;;;;;;;-146.27;64.90;80922.03;5011407;28;20033;-72
2023/08/09 11:02:09;;;;;;;5.47;1.48;;;;;;;-146.27;66.31;81096.75;5013771;28;20426;-71
2023/08/09 11:04:35;;;;;;;5.22;0.90;;;;;;;-146.27;68.73;81106.78;5029227;28;20510;-71
2023/08/09 11:07:01;;;;;;;5.90;1.40;;;;;;;-146.27;70.37;81052.56;5029172;28;20029;-71